createdAt,value
2018-11-14T00:00:05.503Z,36.8
2018-11-14T00:02:05.389Z,36.8
2018-11-14T00:04:05.616Z,36.8
2018-11-14T00:06:05.281Z,36.7
2018-11-14T00:08:21.116Z,36.8
2018-11-14T00:10:08.180Z,36.7
2018-11-14T00:12:05.992Z,36.7
2018-11-14T00:14:10.766Z,36.8
2018-11-14T00:16:05.063Z,36.8
2018-11-14T00:18:06.108Z,36.8
2018-11-14T00:20:06.332Z,36.8
2018-11-14T00:22:10.116Z,36.7
2018-11-14T00:24:10.932Z,36.6
2018-11-14T00:26:08.154Z,36.6
2018-11-14T00:28:05.341Z,36.9
2018-11-14T00:30:10.094Z,36.6
2018-11-14T00:32:05.923Z,36.8
2018-11-14T00:34:07.749Z,36.8
2018-11-14T00:36:05.716Z,36.8
2018-11-14T00:38:08.453Z,36.8
2018-11-14T00:40:05.703Z,36.8
2018-11-14T00:42:10.480Z,36.8
2018-11-14T00:44:05.234Z,36.8
2018-11-14T00:46:13.529Z,36.7
2018-11-14T00:48:05.236Z,36.7
2018-11-14T00:50:07.995Z,36.7
2018-11-14T00:52:05.661Z,36.7
2018-11-14T00:54:05.568Z,36.7
2018-11-14T00:56:05.256Z,36.5
2018-11-14T00:58:05.439Z,36.7
2018-11-14T01:00:05.417Z,36.7
2018-11-14T01:02:06.022Z,36.6
2018-11-14T01:04:08.311Z,36.7
2018-11-14T01:06:08.588Z,36.6
2018-11-14T01:08:07.835Z,36.5
2018-11-14T01:10:15.737Z,36.6
2018-11-14T01:12:08.045Z,36.6
2018-11-14T01:14:10.338Z,36.5
2018-11-14T01:16:05.672Z,36.5
2018-11-14T01:18:10.808Z,36.5
2018-11-14T01:20:05.046Z,36.5
2018-11-14T01:22:05.318Z,36.6
2018-11-14T01:24:05.062Z,36.6
2018-11-14T01:26:05.817Z,36.6
2018-11-14T01:28:05.542Z,36.7
2018-11-14T01:30:05.344Z,36.5
2018-11-14T01:32:07.632Z,36.5
2018-11-14T01:34:06.036Z,36.5
2018-11-14T01:36:05.569Z,36.6
2018-11-14T01:38:05.555Z,36.5
2018-11-14T01:40:05.265Z,36.4
2018-11-14T01:42:08.519Z,36.5
2018-11-14T01:44:10.303Z,36.6
2018-11-14T01:46:05.993Z,36.6
2018-11-14T01:48:05.725Z,36.5
2018-11-14T01:50:05.415Z,36.5
2018-11-14T01:52:05.116Z,36.5
2018-11-14T01:54:10.798Z,36.5
2018-11-14T01:56:05.569Z,36.5
2018-11-14T01:58:05.234Z,36.4
2018-11-14T02:00:05.588Z,36.5
2018-11-14T02:02:13.232Z,36.5
2018-11-14T02:04:06.019Z,36.3
2018-11-14T02:06:07.484Z,36.3
2018-11-14T02:08:05.170Z,36.5
2018-11-14T02:10:18.548Z,36.4
2018-11-14T02:12:05.246Z,36.4
2018-11-14T02:14:11.066Z,36.5
2018-11-14T02:16:07.756Z,36.5
2018-11-14T02:18:05.274Z,36.5
2018-11-14T02:20:05.624Z,36.4
2018-11-14T02:22:05.573Z,36.3
2018-11-14T02:24:07.867Z,36.4
2018-11-14T02:26:05.538Z,36.4
2018-11-14T02:28:08.307Z,36.5
2018-11-14T02:30:10.713Z,36.5
2018-11-14T02:32:07.940Z,36.5
2018-11-14T02:34:05.267Z,36.5
2018-11-14T02:36:05.502Z,36.4
2018-11-14T02:38:05.218Z,36.3
2018-11-14T02:40:05.465Z,36.1
2018-11-14T02:42:05.755Z,36.2
2018-11-14T02:44:06.028Z,36.2
2018-11-14T02:46:05.804Z,36.1
2018-11-14T02:48:05.597Z,36.3
2018-11-14T02:50:05.374Z,36.3
2018-11-14T02:52:05.094Z,36.2
2018-11-14T02:54:08.319Z,36.2
2018-11-14T02:56:11.078Z,36.3
2018-11-14T02:58:05.834Z,36.3
2018-11-14T03:00:05.442Z,36.3
2018-11-14T03:02:05.159Z,36.5
2018-11-14T03:04:05.829Z,36.2
2018-11-14T03:06:06.216Z,36.1
2018-11-14T03:08:05.449Z,36.1
2018-11-14T03:10:05.259Z,36.4
2018-11-14T03:12:05.639Z,36.3
2018-11-14T03:14:08.245Z,36.2
2018-11-14T03:16:05.657Z,36.2
2018-11-14T03:18:05.581Z,36.3
2018-11-14T03:20:10.327Z,36.3
2018-11-14T03:22:05.093Z,36.3
2018-11-14T03:24:10.826Z,36.3
2018-11-14T03:26:05.501Z,36.3
2018-11-14T03:28:05.677Z,36.3
2018-11-14T03:30:08.429Z,36.3
2018-11-14T03:32:05.163Z,36.3
2018-11-14T03:34:05.926Z,36.3
2018-11-14T03:36:05.623Z,36.2
2018-11-14T03:38:05.884Z,36.2
2018-11-14T03:40:05.551Z,36.1
2018-11-14T03:42:05.293Z,36.1
2018-11-14T03:44:08.006Z,36.2
2018-11-14T03:46:13.325Z,36.1
2018-11-14T03:48:05.039Z,36.1
2018-11-14T03:50:05.818Z,36.2
2018-11-14T03:52:05.543Z,36.3
2018-11-14T03:54:05.276Z,36.1
2018-11-14T03:56:05.968Z,36
2018-11-14T03:58:05.731Z,36
2018-11-14T04:00:05.621Z,36.2
2018-11-14T04:02:05.313Z,36
2018-11-14T04:04:05.057Z,36.1
2018-11-14T04:06:10.846Z,36.2
2018-11-14T04:08:05.543Z,36.2
2018-11-14T04:10:05.236Z,36.1
2018-11-14T04:12:05.932Z,36.2
2018-11-14T04:14:05.639Z,36.2
2018-11-14T04:16:05.357Z,36.2
2018-11-14T04:18:07.785Z,36.2
2018-11-14T04:20:05.485Z,36.1
2018-11-14T04:22:05.188Z,36.1
2018-11-14T04:24:05.414Z,36.1
2018-11-14T04:26:05.619Z,36.2
2018-11-14T04:28:05.307Z,36.2
2018-11-14T04:30:06.027Z,36.2
2018-11-14T04:32:05.717Z,36.1
2018-11-14T04:34:08.027Z,36.2
2018-11-14T04:36:05.377Z,36.1
2018-11-14T04:38:05.083Z,36.1
2018-11-14T04:40:05.743Z,36.1
2018-11-14T04:42:11.002Z,36.3
2018-11-14T04:44:05.684Z,36.1
2018-11-14T04:46:07.950Z,36
2018-11-14T04:48:05.747Z,36.2
2018-11-14T04:50:05.383Z,36.2
2018-11-14T04:52:05.131Z,36
2018-11-14T04:54:08.342Z,36
2018-11-14T04:56:05.080Z,36.3
2018-11-14T04:58:05.306Z,36
2018-11-14T05:00:05.023Z,36.1
2018-11-14T05:02:05.781Z,36
2018-11-14T05:04:05.577Z,36.2
2018-11-14T05:06:05.242Z,36.1
2018-11-14T05:08:08.447Z,36.1
2018-11-14T05:10:07.640Z,36.1
2018-11-14T05:12:05.317Z,36.1
2018-11-14T05:14:05.106Z,36
2018-11-14T05:16:05.831Z,36
2018-11-14T05:18:05.282Z,36.1
2018-11-14T05:20:05.993Z,36.1
2018-11-14T05:22:05.688Z,36
2018-11-14T05:24:05.416Z,36.1
2018-11-14T05:26:05.663Z,36
2018-11-14T05:28:05.368Z,36.1
2018-11-14T05:30:05.578Z,36
2018-11-14T05:32:05.513Z,36
2018-11-14T05:34:05.152Z,36
2018-11-14T05:36:05.849Z,36.1
2018-11-14T05:38:10.633Z,35.9
2018-11-14T05:40:05.417Z,35.9
2018-11-14T05:42:10.458Z,35.9
2018-11-14T05:44:05.178Z,35.9
2018-11-14T05:46:05.869Z,36.1
2018-11-14T05:48:08.217Z,36.1
2018-11-14T05:50:09.343Z,36
2018-11-14T05:52:08.509Z,36.2
2018-11-14T05:54:05.793Z,36.2
2018-11-14T05:56:08.582Z,35.8
2018-11-14T05:58:05.304Z,36
2018-11-14T06:00:10.051Z,35.9
2018-11-14T06:02:05.798Z,35.9
2018-11-14T06:04:08.019Z,36
2018-11-14T06:06:05.742Z,36
2018-11-14T06:08:05.468Z,36
2018-11-14T06:10:05.137Z,36
2018-11-14T06:12:05.864Z,35.9
2018-11-14T06:14:05.787Z,36
2018-11-14T06:16:05.491Z,36
2018-11-14T06:18:05.398Z,35.9
2018-11-14T06:20:05.094Z,36.1
2018-11-14T06:22:05.900Z,35.9
2018-11-14T06:24:05.012Z,35.9
2018-11-14T06:26:10.754Z,36.1
2018-11-14T06:28:05.450Z,36
2018-11-14T06:30:07.713Z,36.1
2018-11-14T06:32:05.985Z,35.9
2018-11-14T06:34:05.179Z,36.1
2018-11-14T06:36:05.994Z,35.9
2018-11-14T06:38:08.383Z,36.1
2018-11-14T06:40:05.172Z,36
2018-11-14T06:42:08.412Z,35.9
2018-11-14T06:44:05.264Z,35.9
2018-11-14T06:46:05.938Z,35.9
2018-11-14T06:48:08.091Z,36
2018-11-14T06:50:06.170Z,35.8
2018-11-14T06:52:10.848Z,35.9
2018-11-14T06:54:05.544Z,35.9
2018-11-14T06:56:05.278Z,35.9
2018-11-14T06:58:11.014Z,36
2018-11-14T07:00:05.776Z,35.8
2018-11-14T07:02:08.017Z,35.8
2018-11-14T07:04:05.761Z,35.8
2018-11-14T07:06:05.946Z,35.9
2018-11-14T07:08:05.376Z,36.1
2018-11-14T07:10:10.155Z,36
2018-11-14T07:12:15.980Z,35.9
2018-11-14T07:14:05.686Z,35.9
2018-11-14T07:16:05.399Z,36
2018-11-14T07:18:05.598Z,36
2018-11-14T07:20:05.829Z,36
2018-11-14T07:22:08.094Z,36.2
2018-11-14T07:24:08.368Z,36
2018-11-14T07:26:05.131Z,36
2018-11-14T07:28:08.373Z,36.2
2018-11-14T07:30:05.132Z,35.9
2018-11-14T07:32:05.507Z,36.1
2018-11-14T07:34:05.451Z,36
2018-11-14T07:36:07.710Z,36.1
2018-11-14T07:38:05.380Z,36.1
2018-11-14T07:40:05.227Z,36
2018-11-14T07:42:08.522Z,35.9
2018-11-14T07:44:05.243Z,35.9
2018-11-14T07:46:05.964Z,36.1
2018-11-14T07:48:05.797Z,36
2018-11-14T07:50:11.270Z,36
2018-11-14T07:52:05.289Z,36
2018-11-14T07:54:05.501Z,36
2018-11-14T07:56:05.245Z,36
2018-11-14T07:58:05.940Z,36.2
2018-11-14T08:00:05.636Z,36.1
2018-11-14T08:02:08.013Z,36
2018-11-14T08:04:05.957Z,36
2018-11-14T08:06:05.187Z,36
2018-11-14T08:08:05.922Z,36
2018-11-14T08:10:05.758Z,36.2
2018-11-14T08:12:10.087Z,36.1
2018-11-14T08:14:08.332Z,36.2
2018-11-14T08:16:07.563Z,35.9
2018-11-14T08:18:05.505Z,36
2018-11-14T08:20:05.808Z,36
2018-11-14T08:22:07.996Z,36
2018-11-14T08:24:05.694Z,36
2018-11-14T08:26:08.053Z,36
2018-11-14T08:28:05.782Z,36
2018-11-14T08:30:05.459Z,36
2018-11-14T08:32:05.246Z,36
2018-11-14T08:34:05.965Z,36.1
2018-11-14T08:36:05.649Z,36
2018-11-14T08:38:07.919Z,36.2
2018-11-14T08:40:05.591Z,36.2
2018-11-14T08:42:07.781Z,36.2
2018-11-14T08:44:13.087Z,36.2
2018-11-14T08:46:05.811Z,36.2
2018-11-14T08:48:05.553Z,36.3
2018-11-14T08:50:05.618Z,36.2
2018-11-14T08:52:08.037Z,36.1
2018-11-14T08:54:10.842Z,36.2
2018-11-14T08:56:05.535Z,36.1
2018-11-14T08:58:08.521Z,36
2018-11-14T09:00:05.586Z,36
2018-11-14T09:02:07.842Z,36.1
2018-11-14T09:04:13.308Z,36.1
2018-11-14T09:06:10.219Z,36.1
2018-11-14T09:08:04.990Z,36.1
2018-11-14T09:10:05.698Z,36
2018-11-14T09:12:07.941Z,36.1
2018-11-14T09:14:08.269Z,36.1
2018-11-14T09:16:05.350Z,36.1
2018-11-14T09:18:05.445Z,36.2
2018-11-14T09:20:05.319Z,35.9
2018-11-14T09:22:07.638Z,35.9
2018-11-14T09:24:05.351Z,35.9
2018-11-14T09:26:05.083Z,36
2018-11-14T09:28:05.323Z,36
2018-11-14T09:30:05.176Z,35.9
2018-11-14T09:32:08.016Z,35.9
2018-11-14T09:34:05.736Z,35.9
2018-11-14T09:36:05.455Z,36
2018-11-14T09:38:05.167Z,36
2018-11-14T09:40:05.832Z,35.9
2018-11-14T09:42:05.506Z,36
2018-11-14T09:44:05.223Z,36
2018-11-14T09:46:05.920Z,35.8
2018-11-14T09:48:05.136Z,35.8
2018-11-14T09:50:05.860Z,35.8
2018-11-14T09:52:05.040Z,35.9
2018-11-14T09:54:05.755Z,35.8
2018-11-14T09:56:05.469Z,35.8
2018-11-14T09:58:05.432Z,35.8
2018-11-14T10:00:07.686Z,35.8
2018-11-14T10:02:07.987Z,35.7
2018-11-14T10:04:05.730Z,35.8
2018-11-14T10:06:08.678Z,35.5
2018-11-14T10:08:05.841Z,35.8
2018-11-14T10:10:07.692Z,35.7
2018-11-14T10:12:05.379Z,35.6
2018-11-14T10:14:05.889Z,35.6
2018-11-14T10:16:05.910Z,35.8
2018-11-14T10:18:05.964Z,35.6
2018-11-14T10:20:05.762Z,35.6
2018-11-14T10:22:05.476Z,35.6
2018-11-14T10:24:05.678Z,35.7
2018-11-14T10:26:05.938Z,35.7
2018-11-14T10:28:05.633Z,35.6
2018-11-14T10:30:05.403Z,35.7
2018-11-14T10:32:05.187Z,35.5
2018-11-14T10:34:05.913Z,35.5
2018-11-14T10:36:08.148Z,35.6
2018-11-14T10:38:05.875Z,35.6
2018-11-14T10:40:08.078Z,35.7
2018-11-14T10:42:07.850Z,35.7
2018-11-14T10:44:08.131Z,35.7
2018-11-14T10:46:05.921Z,35.7
2018-11-14T10:48:05.624Z,35.7
2018-11-14T10:50:05.339Z,35.7
2018-11-14T10:52:07.598Z,35.6
2018-11-14T10:54:05.805Z,35.6
2018-11-14T10:56:07.597Z,35.6
2018-11-14T10:58:05.814Z,35.6
2018-11-14T11:00:05.527Z,35.8
2018-11-14T11:02:05.880Z,35.8
2018-11-14T11:04:05.551Z,35.7
2018-11-14T11:06:05.320Z,35.7
2018-11-14T11:08:05.292Z,35.7
2018-11-14T11:10:05.559Z,35.7
2018-11-14T11:12:07.792Z,35.7
2018-11-14T11:14:06.036Z,35.7
2018-11-14T11:16:05.734Z,35.7
2018-11-14T11:18:05.732Z,35.7
2018-11-14T11:20:05.636Z,35.6
2018-11-14T11:22:05.332Z,35.6
2018-11-14T11:24:05.012Z,35.8
2018-11-14T11:26:05.770Z,35.7
2018-11-14T11:28:07.999Z,35.6
2018-11-14T11:30:05.631Z,35.6
2018-11-14T11:32:05.523Z,35.6
2018-11-14T11:34:05.220Z,35.6
2018-11-14T11:36:05.511Z,35.6
2018-11-14T11:38:05.897Z,35.8
2018-11-14T11:40:05.654Z,35.7
2018-11-14T11:42:05.367Z,35.6
2018-11-14T11:44:05.084Z,35.7
2018-11-14T11:46:05.755Z,35.6
2018-11-14T11:48:08.101Z,35.6
2018-11-14T11:50:05.438Z,35.6
2018-11-14T11:52:05.175Z,35.7
2018-11-14T11:54:06.139Z,35.8
2018-11-14T11:56:09.561Z,35.6
2018-11-14T11:58:05.322Z,35.6
2018-11-14T12:00:10.331Z,35.9
2018-11-14T12:02:08.075Z,36
2018-11-14T12:04:05.071Z,36
2018-11-14T12:06:06.302Z,36.1
2018-11-14T12:08:05.784Z,36.1
2018-11-14T12:10:05.636Z,36.3
2018-11-14T12:12:05.326Z,36.3
2018-11-14T12:14:05.555Z,36.2
2018-11-14T12:16:05.313Z,36.3
2018-11-14T12:18:10.383Z,36.4
2018-11-14T12:20:08.156Z,36.2
2018-11-14T12:22:05.888Z,36
2018-11-14T12:24:05.655Z,36
2018-11-14T12:26:05.370Z,36.1
2018-11-14T12:28:05.027Z,36.1
2018-11-14T12:30:05.978Z,36.1
2018-11-14T12:32:10.266Z,36
2018-11-14T12:34:08.456Z,36
2018-11-14T12:36:05.137Z,36
2018-11-14T12:38:05.837Z,35.9
2018-11-14T12:40:05.523Z,35.9
2018-11-14T12:42:10.253Z,35.8
2018-11-14T12:44:05.941Z,35.8
2018-11-14T12:46:05.699Z,35.9
2018-11-14T12:48:10.472Z,35.7
2018-11-14T12:50:12.802Z,35.8
2018-11-14T12:52:10.712Z,35.8
2018-11-14T12:54:05.487Z,35.8
2018-11-14T12:56:05.736Z,35.7
2018-11-14T12:58:05.511Z,35.8
2018-11-14T13:00:05.816Z,35.8
2018-11-14T13:02:05.820Z,35.8
2018-11-14T13:04:10.578Z,35.8
2018-11-14T13:06:10.343Z,35.7
2018-11-14T13:08:05.063Z,35.7
2018-11-14T13:10:06.199Z,35.7
2018-11-14T13:12:06.016Z,35.7
2018-11-14T13:14:05.209Z,35.8
2018-11-14T13:16:05.940Z,35.7
2018-11-14T13:18:05.907Z,36
2018-11-14T13:20:07.640Z,35.9
2018-11-14T13:22:05.347Z,35.9
2018-11-14T13:24:05.158Z,35.9
2018-11-14T13:26:08.451Z,36
2018-11-14T13:28:07.644Z,35.9
2018-11-14T13:30:07.868Z,35.8
2018-11-14T13:32:10.625Z,35.9
2018-11-14T13:34:05.295Z,35.8
2018-11-14T13:36:06.042Z,35.8
2018-11-14T13:38:08.015Z,35.8
2018-11-14T13:40:05.785Z,35.8
2018-11-14T13:42:08.565Z,36.1
2018-11-14T13:44:05.386Z,36.1
2018-11-14T13:46:05.634Z,36.1
2018-11-14T13:48:08.038Z,35.9
2018-11-14T13:50:05.959Z,35.9
2018-11-14T13:52:05.211Z,35.9
2018-11-14T13:54:05.940Z,35.9
2018-11-14T13:56:08.196Z,35.8
2018-11-14T13:58:05.467Z,36.1
2018-11-14T14:00:10.795Z,36.1
2018-11-14T14:02:05.510Z,36
2018-11-14T14:04:07.744Z,36
2018-11-14T14:06:05.458Z,36.1
2018-11-14T14:08:08.194Z,36.1
2018-11-14T14:10:05.620Z,36.1
2018-11-14T14:12:05.858Z,36
2018-11-14T14:14:13.176Z,36
2018-11-14T14:16:05.453Z,36
2018-11-14T14:18:11.464Z,36.1
2018-11-14T14:20:05.197Z,36
2018-11-14T14:22:06.066Z,36.1
2018-11-14T14:24:05.091Z,36.3
2018-11-14T14:26:05.737Z,36.3
2018-11-14T14:28:10.442Z,36.3
2018-11-14T14:30:05.305Z,36.3
2018-11-14T14:32:05.239Z,36.5
2018-11-14T14:34:08.658Z,36.6
2018-11-14T14:36:10.675Z,36.6
2018-11-14T14:38:05.577Z,36.6
2018-11-14T14:40:05.543Z,36.7
2018-11-14T14:42:08.924Z,36.6
2018-11-14T14:44:05.830Z,36.7
2018-11-14T14:46:08.061Z,36.5
2018-11-14T14:48:05.873Z,36.5
2018-11-14T14:50:05.830Z,36.5
2018-11-14T14:52:05.526Z,36.5
2018-11-14T14:54:05.275Z,36.5
2018-11-14T14:56:06.039Z,36.6
2018-11-14T14:58:05.390Z,36.6
2018-11-14T15:00:05.290Z,36.7
2018-11-14T15:02:05.128Z,36.6
2018-11-14T15:04:08.418Z,36.7
2018-11-14T15:06:05.174Z,36.7
2018-11-14T15:08:05.922Z,36.5
2018-11-14T15:10:08.155Z,36.7
2018-11-14T15:12:10.913Z,36.7
2018-11-14T15:14:05.587Z,36.8
2018-11-14T15:16:05.305Z,36.7
2018-11-14T15:18:05.593Z,36.7
2018-11-14T15:20:07.899Z,36.7
2018-11-14T15:22:08.141Z,36.8
2018-11-14T15:24:05.847Z,36.8
2018-11-14T15:26:08.090Z,36.8
2018-11-14T15:28:05.769Z,36.8
2018-11-14T15:30:10.567Z,36.9
2018-11-14T15:32:05.496Z,36.9
2018-11-14T15:34:05.684Z,36.7
2018-11-14T15:36:06.219Z,36.8
2018-11-14T15:38:05.821Z,36.5
2018-11-14T15:40:08.124Z,36.5
2018-11-14T15:42:07.612Z,36.5
2018-11-14T15:44:05.437Z,36.5
2018-11-14T15:46:05.778Z,36.5
2018-11-14T15:48:05.569Z,36.4
2018-11-14T15:50:05.473Z,36.4
2018-11-14T15:52:05.407Z,36.4
2018-11-14T15:54:05.386Z,36.2
2018-11-14T15:56:05.092Z,36.2
2018-11-14T15:58:06.193Z,36.2
2018-11-14T16:00:05.424Z,36.4
2018-11-14T16:02:05.136Z,36.1
2018-11-14T16:04:05.903Z,36.1
2018-11-14T16:06:10.746Z,35.9
2018-11-14T16:08:05.437Z,35.9
2018-11-14T16:10:05.295Z,36
2018-11-14T16:12:05.986Z,36
2018-11-14T16:14:05.786Z,36.2
2018-11-14T16:16:05.478Z,36.2
2018-11-14T16:18:05.531Z,36.1
2018-11-14T16:20:05.573Z,36.1
2018-11-14T16:22:05.259Z,36
2018-11-14T16:24:05.994Z,36.2
2018-11-14T16:26:08.274Z,36.1
2018-11-14T16:28:08.454Z,36
2018-11-14T16:30:05.717Z,36
2018-11-14T16:32:08.008Z,36
2018-11-14T16:34:07.810Z,36.1
2018-11-14T16:36:05.593Z,36.1
2018-11-14T16:38:05.438Z,36
2018-11-14T16:40:05.278Z,36
2018-11-14T16:42:08.515Z,35.9
2018-11-14T16:44:08.406Z,35.9
2018-11-14T16:46:05.375Z,35.9
2018-11-14T16:48:07.576Z,36
2018-11-14T16:50:05.291Z,35.8
2018-11-14T16:52:06.006Z,35.8
2018-11-14T16:54:07.874Z,36
2018-11-14T16:56:05.550Z,36
2018-11-14T16:58:05.874Z,35.9
2018-11-14T17:00:05.650Z,36
2018-11-14T17:02:05.433Z,36
2018-11-14T17:04:05.233Z,36
2018-11-14T17:06:05.950Z,35.8
2018-11-14T17:08:05.245Z,35.7
2018-11-14T17:10:16.060Z,35.6
2018-11-14T17:12:05.797Z,35.8
2018-11-14T17:14:05.495Z,35.8
2018-11-14T17:16:05.209Z,35.9
2018-11-14T17:18:05.147Z,35.9
2018-11-14T17:20:05.799Z,35.8
2018-11-14T17:22:13.142Z,35.8
2018-11-14T17:24:10.924Z,35.8
2018-11-14T17:26:08.409Z,36
2018-11-14T17:28:05.365Z,36
2018-11-14T17:30:05.132Z,35.9
2018-11-14T17:32:08.337Z,36
2018-11-14T17:34:05.085Z,36
2018-11-14T17:36:11.090Z,35.9
2018-11-14T17:38:10.082Z,36.2
2018-11-14T17:40:05.893Z,36.2
2018-11-14T17:42:08.701Z,36.3
2018-11-14T17:44:05.495Z,36.3
2018-11-14T17:46:05.194Z,36.3
2018-11-14T17:48:05.853Z,36.3
2018-11-14T17:50:08.221Z,36.6
2018-11-14T17:52:04.988Z,36.6
2018-11-14T17:54:05.229Z,36.7
2018-11-14T17:56:05.492Z,36.8
2018-11-14T17:58:07.680Z,37.1
2018-11-14T18:00:08.512Z,37.2
2018-11-14T18:02:05.178Z,37.2
2018-11-14T18:04:05.866Z,37.4
2018-11-14T18:06:05.605Z,37.4
2018-11-14T18:08:08.440Z,37.4
2018-11-14T18:10:05.122Z,37.3
2018-11-14T18:12:08.391Z,37.5
2018-11-14T18:14:05.090Z,37.5
2018-11-14T18:16:10.797Z,37.7
2018-11-14T18:18:05.708Z,37.6
2018-11-14T18:20:05.399Z,37.6
2018-11-14T18:22:05.166Z,37.7
2018-11-14T18:24:05.435Z,37.5
2018-11-14T18:26:05.161Z,37.5
2018-11-14T18:28:05.877Z,37.5
2018-11-14T18:30:08.358Z,37.6
2018-11-14T18:32:07.885Z,37.4
2018-11-14T18:34:05.338Z,37.4
2018-11-14T18:36:07.527Z,37.4
2018-11-14T18:38:05.366Z,37.4
2018-11-14T18:40:07.580Z,37.4
2018-11-14T18:42:11.042Z,37.4
2018-11-14T18:44:05.721Z,37.4
2018-11-14T18:46:05.397Z,37.3
2018-11-14T18:48:05.108Z,37.3
2018-11-14T18:50:06.023Z,37.2
2018-11-14T18:52:08.319Z,37.2
2018-11-14T18:54:05.189Z,37.2
2018-11-14T18:56:05.929Z,37.2
2018-11-14T18:58:05.730Z,37.1
2018-11-14T19:00:05.408Z,37.1
2018-11-14T19:02:05.226Z,37
2018-11-14T19:04:05.966Z,37.3
2018-11-14T19:06:05.736Z,37.2
2018-11-14T19:08:05.416Z,37.2
2018-11-14T19:10:05.155Z,37.2
2018-11-14T19:12:06.033Z,37.2
2018-11-14T19:14:08.303Z,37.1
2018-11-14T19:16:10.044Z,36.9
2018-11-14T19:18:05.179Z,36.9
2018-11-14T19:20:06.008Z,37.1
2018-11-14T19:22:05.759Z,36.9
2018-11-14T19:24:05.592Z,37
2018-11-14T19:26:08.958Z,37.1
2018-11-14T19:28:08.410Z,36.9
2018-11-14T19:30:05.121Z,36.9
2018-11-14T19:32:08.612Z,36.8
2018-11-14T19:34:05.790Z,36.8
2018-11-14T19:36:05.490Z,37
2018-11-14T19:38:08.262Z,36.6
2018-11-14T19:40:05.894Z,36.6
2018-11-14T19:42:05.652Z,36.8
2018-11-14T19:44:05.403Z,36.9
2018-11-14T19:46:05.078Z,36.8
2018-11-14T19:48:05.827Z,36.7
2018-11-14T19:50:07.578Z,36.7
2018-11-14T19:52:05.336Z,36.7
2018-11-14T19:54:07.568Z,36.7
2018-11-14T19:56:05.401Z,36.7
2018-11-14T19:58:07.747Z,36.7
2018-11-14T20:00:05.767Z,36.7
2018-11-14T20:02:08.174Z,36.6
2018-11-14T20:04:05.112Z,36.6
2018-11-14T20:06:15.949Z,36.5
2018-11-14T20:08:05.167Z,36.5
2018-11-14T20:10:05.859Z,36.5
2018-11-14T20:12:05.905Z,36.7
2018-11-14T20:14:10.216Z,36.5
2018-11-14T20:16:08.460Z,36.5
2018-11-14T20:18:05.511Z,36.3
2018-11-14T20:20:12.852Z,36.5
2018-11-14T20:22:07.604Z,36.6
2018-11-14T20:24:05.880Z,36.4
2018-11-14T20:26:05.706Z,36.4
2018-11-14T20:28:07.781Z,36.4
2018-11-14T20:30:08.306Z,36.4
2018-11-14T20:32:06.361Z,36.4
2018-11-14T20:34:09.959Z,36.4
2018-11-14T20:36:10.063Z,36.4
2018-11-14T20:38:05.818Z,36.4
2018-11-14T20:40:05.582Z,36.4
2018-11-14T20:42:12.957Z,36.1
2018-11-14T20:44:08.588Z,36.4
2018-11-14T20:46:06.801Z,36.2
2018-11-14T20:48:06.498Z,36.2
2018-11-14T20:50:07.735Z,36.2
2018-11-14T20:52:05.422Z,36.2
2018-11-14T20:54:05.298Z,36.2
2018-11-14T20:56:05.482Z,36.2
2018-11-14T20:58:05.118Z,36.1
2018-11-14T21:00:05.018Z,36.1
2018-11-14T21:02:08.222Z,36.2
2018-11-14T21:04:05.448Z,36.2
2018-11-14T21:06:07.726Z,36.1
2018-11-14T21:08:05.616Z,36.1
2018-11-14T21:10:16.021Z,36.1
2018-11-14T21:12:05.755Z,35.9
2018-11-14T21:14:13.098Z,36
2018-11-14T21:16:05.327Z,36.1
2018-11-14T21:18:05.212Z,36.1
2018-11-14T21:20:05.899Z,36.2
2018-11-14T21:22:05.720Z,36
2018-11-14T21:24:08.526Z,35.9
2018-11-14T21:26:05.794Z,35.9
2018-11-14T21:28:05.497Z,36
2018-11-14T21:30:05.695Z,36
2018-11-14T21:32:05.378Z,35.9
2018-11-14T21:34:05.624Z,35.9
2018-11-14T21:36:07.808Z,35.9
2018-11-14T21:38:05.677Z,35.9
2018-11-14T21:40:05.728Z,36
2018-11-14T21:42:05.518Z,35.8
2018-11-14T21:44:05.812Z,35.9
2018-11-14T21:46:05.530Z,35.8
2018-11-14T21:48:05.236Z,35.8
2018-11-14T21:50:05.996Z,35.9
2018-11-14T21:52:05.731Z,35.9
2018-11-14T21:54:05.451Z,35.9
2018-11-14T21:56:05.761Z,35.8
2018-11-14T21:58:05.990Z,35.8
2018-11-14T22:00:08.456Z,35.8
2018-11-14T22:02:05.235Z,35.8
2018-11-14T22:04:05.546Z,35.8
2018-11-14T22:06:07.568Z,35.7
2018-11-14T22:08:07.459Z,35.8
2018-11-14T22:10:07.866Z,35.7
2018-11-14T22:12:05.922Z,35.7
2018-11-14T22:14:05.640Z,35.8
2018-11-14T22:16:05.347Z,35.7
2018-11-14T22:18:05.275Z,35.8
2018-11-14T22:20:05.976Z,36
2018-11-14T22:22:08.185Z,35.7
2018-11-14T22:24:05.904Z,35.7
2018-11-14T22:26:05.155Z,35.7
2018-11-14T22:28:06.071Z,35.8
2018-11-14T22:30:05.529Z,35.8
2018-11-14T22:32:05.254Z,35.8
2018-11-14T22:34:06.022Z,35.9
2018-11-14T22:36:08.269Z,36.2
2018-11-14T22:38:05.946Z,36.2
2018-11-14T22:40:05.724Z,36.2
2018-11-14T22:42:10.806Z,36.4
2018-11-14T22:44:05.530Z,36.4
2018-11-14T22:46:05.245Z,36.3
2018-11-14T22:48:05.970Z,36.5
2018-11-14T22:50:05.762Z,36.5
2018-11-14T22:52:05.622Z,36.4
2018-11-14T22:54:13.134Z,36.6
2018-11-14T22:56:05.369Z,36.5
2018-11-14T22:58:05.133Z,36.5
2018-11-14T23:00:06.033Z,36.5
2018-11-14T23:02:08.366Z,36.4
2018-11-14T23:04:05.335Z,36.4
2018-11-14T23:06:04.991Z,36.5
2018-11-14T23:08:08.264Z,36.4
2018-11-14T23:10:18.612Z,36.4
2018-11-14T23:12:05.413Z,36.4
2018-11-14T23:14:05.303Z,36.4
2018-11-14T23:16:05.053Z,36.3
2018-11-14T23:18:08.490Z,36.4
2018-11-14T23:20:05.182Z,36.4
2018-11-14T23:22:05.908Z,36.3
2018-11-14T23:24:05.656Z,36.3
2018-11-14T23:26:07.911Z,36.4
2018-11-14T23:28:05.653Z,36.4
2018-11-14T23:30:05.976Z,36.4
2018-11-14T23:32:08.246Z,36.4
2018-11-14T23:34:06.040Z,36.4
2018-11-14T23:36:05.553Z,36.5
2018-11-14T23:38:05.382Z,36.5
2018-11-14T23:40:07.623Z,36.3
2018-11-14T23:42:05.360Z,36.5
2018-11-14T23:44:05.602Z,36.2
2018-11-14T23:46:10.894Z,36.2
2018-11-14T23:48:10.693Z,36.2
2018-11-14T23:50:05.493Z,36.2
2018-11-14T23:52:10.580Z,36.1
2018-11-14T23:54:05.279Z,36.1
2018-11-14T23:56:05.951Z,36.1
2018-11-14T23:58:05.715Z,36.1
